createdAt,value
2022-08-05T00:00:56.144Z,72.87
2022-08-05T00:03:44.338Z,72.82
2022-08-05T00:06:27.738Z,72.96
2022-08-05T00:09:02.148Z,72.86
2022-08-05T00:11:35.034Z,72.98
2022-08-05T00:14:12.082Z,72.90
2022-08-05T00:16:52.511Z,72.68
2022-08-05T00:19:22.667Z,72.70
2022-08-05T00:21:51.541Z,72.64
2022-08-05T00:24:24.558Z,72.85
2022-08-05T00:26:53.517Z,72.75
2022-08-05T00:29:25.537Z,72.49
2022-08-05T00:32:13.385Z,72.70
2022-08-05T00:35:04.349Z,72.50
2022-08-05T00:37:50.603Z,72.33
2022-08-05T00:40:26.707Z,72.30
2022-08-05T00:42:55.841Z,72.33
2022-08-05T00:45:24.985Z,72.21
2022-08-05T00:48:06.519Z,72.39
2022-08-05T00:50:35.078Z,72.37
2022-08-05T00:53:03.744Z,72.21
2022-08-05T00:55:42.798Z,72.41
2022-08-05T00:58:12.093Z,72.41
2022-08-05T01:00:41.001Z,72.39
2022-08-05T01:03:22.260Z,72.05
2022-08-05T01:05:51.165Z,72.13
2022-08-05T01:08:40.028Z,72.23
2022-08-05T01:11:14.108Z,71.98
2022-08-05T01:14:01.803Z,72.12
2022-08-05T01:16:34.974Z,72.35
2022-08-05T01:19:11.812Z,72.08
2022-08-05T01:21:59.963Z,71.85
2022-08-05T01:24:45.438Z,71.84
2022-08-05T01:27:33.046Z,71.72
2022-08-05T01:30:18.679Z,72.17
2022-08-05T01:32:50.462Z,71.85
2022-08-05T01:35:51.215Z,72.14
2022-08-05T01:38:14.670Z,72.21
2022-08-05T01:40:56.804Z,71.79
2022-08-05T01:43:26.111Z,71.97
2022-08-05T01:45:57.134Z,71.74
2022-08-05T01:48:26.179Z,71.60
2022-08-05T01:50:57.087Z,71.77
2022-08-05T01:53:54.548Z,71.87
2022-08-05T01:58:10.637Z,71.81
2022-08-05T01:59:11.821Z,71.50
2022-08-05T02:01:42.182Z,71.70
2022-08-05T02:04:10.863Z,71.81
2022-08-05T02:06:39.890Z,71.48
2022-08-05T02:09:09.721Z,71.78
2022-08-05T02:11:52.224Z,71.50
2022-08-05T02:14:29.235Z,71.46
2022-08-05T02:17:07.990Z,71.38
2022-08-05T02:19:52.261Z,71.48
2022-08-05T02:22:28.162Z,71.55
2022-08-05T02:25:06.252Z,71.32
2022-08-05T02:27:58.911Z,71.64
2022-08-05T02:30:32.031Z,71.39
2022-08-05T02:33:06.648Z,71.26
2022-08-05T02:35:37.709Z,71.31
2022-08-05T02:38:19.147Z,71.35
2022-08-05T02:40:47.940Z,71.49
2022-08-05T02:43:17.922Z,71.18
2022-08-05T02:45:52.501Z,71.04
2022-08-05T02:48:29.374Z,71.27
2022-08-05T02:50:59.884Z,71.22
2022-08-05T02:53:28.561Z,71.29
2022-08-05T02:56:09.061Z,71.30
2022-08-05T02:58:38.122Z,71.24
2022-08-05T03:01:19.473Z,71.19
2022-08-05T03:04:02.821Z,71.08
2022-08-05T03:06:55.959Z,70.90
2022-08-05T03:09:36.403Z,71.10
2022-08-05T03:12:08.192Z,71.10
2022-08-05T03:14:39.005Z,71.22
2022-08-05T03:17:14.155Z,70.91
2022-08-05T03:19:45.662Z,70.86
2022-08-05T03:22:16.482Z,70.65
2022-08-05T03:24:50.806Z,70.94
2022-08-05T03:27:21.480Z,71.10
2022-08-05T03:30:08.432Z,70.97
2022-08-05T03:32:37.493Z,70.86
2022-08-05T03:35:09.029Z,70.59
2022-08-05T03:37:46.152Z,70.63
2022-08-05T03:40:15.862Z,70.73
2022-08-05T03:42:52.992Z,70.84
2022-08-05T03:45:23.278Z,70.86
2022-08-05T03:47:57.213Z,70.87
2022-08-05T03:50:30.215Z,70.80
2022-08-05T03:55:51.092Z,70.71
2022-08-05T03:56:12.080Z,70.76
2022-08-05T03:58:48.235Z,70.76
2022-08-05T04:01:22.248Z,70.51
2022-08-05T04:04:09.912Z,70.75
2022-08-05T04:06:47.522Z,70.45
2022-08-05T04:09:20.223Z,70.70
2022-08-05T04:11:56.690Z,70.46
2022-08-05T04:14:29.853Z,70.89
2022-08-05T04:17:00.834Z,70.43
2022-08-05T04:19:31.309Z,70.56
2022-08-05T04:22:08.391Z,70.38
2022-08-05T04:24:43.782Z,70.25
2022-08-05T04:27:13.522Z,70.10
2022-08-05T04:29:41.509Z,70.17
2022-08-05T04:32:10.613Z,70.20
2022-08-05T04:34:42.600Z,70.44
2022-08-05T04:37:12.957Z,70.15
2022-08-05T04:39:41.015Z,70.16
2022-08-05T04:42:09.912Z,70.38
2022-08-05T04:44:37.918Z,69.95
2022-08-05T04:47:09.571Z,70.14
2022-08-05T04:50:01.622Z,70.30
2022-08-05T04:52:28.349Z,70.31
2022-08-05T04:54:56.898Z,70.06
2022-08-05T04:57:29.143Z,70.25
2022-08-05T04:59:58.511Z,70.05
2022-08-05T05:02:36.741Z,70.14
2022-08-05T05:05:16.878Z,70.04
2022-08-05T05:08:01.668Z,70.23
2022-08-05T05:10:30.593Z,70.13
2022-08-05T05:13:03.782Z,70.15
2022-08-05T05:15:56.521Z,70.02
2022-08-05T05:18:28.343Z,69.94
2022-08-05T05:21:01.359Z,69.86
2022-08-05T05:23:39.256Z,69.96
2022-08-05T05:26:18.768Z,70.13
2022-08-05T05:28:46.913Z,70.06
2022-08-05T05:31:15.042Z,69.81
2022-08-05T05:33:59.221Z,70.08
2022-08-05T05:36:30.425Z,70.10
2022-08-05T05:39:03.831Z,70.13
2022-08-05T05:41:40.081Z,69.70
2022-08-05T05:44:35.837Z,69.92
2022-08-05T05:46:58.510Z,70.06
2022-08-05T05:49:32.406Z,69.78
2022-08-05T05:52:01.410Z,69.89
2022-08-05T05:54:50.761Z,69.61
2022-08-05T05:57:20.506Z,69.72
2022-08-05T05:59:49.244Z,69.63
2022-08-05T06:02:32.866Z,69.75
2022-08-05T06:05:15.734Z,69.57
2022-08-05T06:08:01.130Z,69.57
2022-08-05T06:10:34.500Z,69.71
2022-08-05T06:13:05.132Z,69.56
2022-08-05T06:16:28.161Z,69.69
2022-08-05T06:18:21.555Z,69.60
2022-08-05T06:20:59.391Z,69.67
2022-08-05T06:23:27.327Z,69.61
2022-08-05T06:26:21.525Z,69.68
2022-08-05T06:28:51.887Z,70.07
2022-08-05T06:31:22.052Z,69.60
2022-08-05T06:34:08.015Z,69.75
2022-08-05T06:36:53.680Z,69.91
2022-08-05T06:39:27.269Z,69.75
2022-08-05T06:41:59.292Z,69.51
2022-08-05T06:44:27.447Z,69.64
2022-08-05T06:46:55.599Z,69.80
2022-08-05T06:50:00.552Z,69.77
2022-08-05T06:52:36.758Z,69.87
2022-08-05T06:55:03.287Z,70.08
2022-08-05T06:58:02.610Z,70.14
2022-08-05T07:00:24.779Z,69.83
2022-08-05T07:02:54.304Z,70.02
2022-08-05T07:05:31.800Z,69.88
2022-08-05T07:08:10.627Z,69.89
2022-08-05T07:10:39.804Z,69.74
2022-08-05T07:13:59.391Z,69.68
2022-08-05T07:18:00.541Z,69.62
2022-08-05T07:22:28.460Z,69.49
2022-08-05T07:24:58.404Z,69.85
2022-08-05T07:27:27.519Z,69.58
2022-08-05T07:30:27.214Z,69.55
2022-08-05T07:32:59.100Z,69.56
2022-08-05T07:36:04.969Z,69.81
2022-08-05T07:38:33.040Z,69.91
2022-08-05T07:42:08.073Z,69.72
2022-08-05T07:43:51.301Z,69.54
2022-08-05T07:46:25.256Z,69.67
2022-08-05T07:49:04.339Z,69.67
2022-08-05T07:51:40.687Z,69.36
2022-08-05T07:54:18.755Z,69.55
2022-08-05T07:57:02.876Z,69.47
2022-08-05T07:59:40.343Z,69.51
2022-08-05T08:02:16.169Z,69.60
2022-08-05T08:04:46.759Z,69.82
2022-08-05T08:07:15.377Z,69.84
2022-08-05T08:09:43.961Z,69.70
2022-08-05T08:12:37.377Z,69.41
2022-08-05T08:15:02.522Z,69.56
2022-08-05T08:17:32.949Z,69.50
2022-08-05T08:20:42.897Z,69.52
2022-08-05T08:22:52.980Z,69.29
2022-08-05T08:25:26.905Z,69.31
2022-08-05T08:28:11.404Z,68.95
2022-08-05T08:30:49.952Z,68.72
2022-08-05T08:33:19.905Z,68.66
2022-08-05T08:35:52.993Z,68.49
2022-08-05T08:38:35.381Z,68.24
2022-08-05T08:41:08.675Z,68.33
2022-08-05T08:45:23.786Z,67.92
2022-08-05T08:46:29.268Z,67.78
2022-08-05T08:50:03.827Z,67.74
2022-08-05T08:52:03.127Z,67.51
2022-08-05T08:54:36.519Z,67.69
2022-08-05T08:57:11.286Z,67.52
2022-08-05T08:59:47.391Z,67.70
2022-08-05T09:02:19.169Z,67.58
2022-08-05T09:05:16.359Z,67.78
2022-08-05T09:07:39.919Z,67.60
2022-08-05T09:10:27.645Z,67.82
2022-08-05T09:13:04.841Z,67.60
2022-08-05T09:15:36.917Z,67.65
2022-08-05T09:18:08.687Z,67.45
2022-08-05T09:20:39.042Z,67.39
2022-08-05T09:23:19.901Z,67.61
2022-08-05T09:26:02.927Z,67.33
2022-08-05T09:28:34.095Z,67.47
2022-08-05T09:31:22.523Z,67.33
2022-08-05T09:33:56.397Z,67.48
2022-08-05T09:36:27.357Z,67.52
2022-08-05T09:39:03.904Z,67.33
2022-08-05T09:41:58.376Z,67.47
2022-08-05T09:44:41.280Z,67.37
2022-08-05T09:47:15.630Z,67.80
2022-08-05T09:50:01.779Z,67.81
2022-08-05T09:52:34.136Z,67.37
2022-08-05T09:55:06.256Z,67.54
2022-08-05T09:57:54.794Z,67.85
2022-08-05T10:00:26.800Z,67.60
2022-08-05T10:02:58.041Z,67.54
2022-08-05T10:05:28.274Z,67.58
2022-08-05T10:08:35.510Z,67.85
2022-08-05T10:10:50.393Z,67.70
2022-08-05T10:13:43.978Z,67.77
2022-08-05T10:16:34.200Z,67.62
2022-08-05T10:19:09.414Z,67.90
2022-08-05T10:21:40.331Z,67.56
2022-08-05T10:24:13.659Z,67.64
2022-08-05T10:26:51.207Z,67.84
2022-08-05T10:29:23.594Z,67.84
2022-08-05T10:32:52.277Z,67.78
2022-08-05T10:35:00.725Z,67.46
2022-08-05T10:37:40.123Z,67.42
2022-08-05T10:40:28.258Z,67.73
2022-08-05T10:43:02.539Z,67.48
2022-08-05T10:45:40.408Z,67.60
2022-08-05T10:48:39.620Z,67.50
2022-08-05T10:51:28.303Z,67.71
2022-08-05T10:54:01.576Z,67.53
2022-08-05T10:56:37.757Z,67.61
2022-08-05T10:59:12.703Z,67.60
2022-08-05T11:02:14.693Z,67.32
2022-08-05T11:04:59.349Z,67.65
2022-08-05T11:07:33.174Z,67.67
2022-08-05T11:10:27.603Z,67.49
2022-08-05T11:13:01.254Z,67.32
2022-08-05T11:16:00.688Z,67.37
2022-08-05T11:18:30.243Z,67.57
2022-08-05T11:21:02.978Z,67.44
2022-08-05T11:24:04.473Z,67.74
2022-08-05T11:26:33.341Z,67.35
2022-08-05T11:29:11.573Z,67.51
2022-08-05T11:31:54.542Z,67.79
2022-08-05T11:34:38.859Z,67.21
2022-08-05T11:38:36.453Z,67.62
2022-08-05T11:40:02.872Z,67.63
2022-08-05T11:42:40.140Z,67.60
2022-08-05T11:45:23.185Z,67.54
2022-08-05T11:47:58.897Z,67.68
2022-08-05T11:50:27.323Z,67.39
2022-08-05T11:52:58.298Z,67.60
2022-08-05T11:55:32.181Z,67.47
2022-08-05T11:58:09.771Z,67.24
2022-08-05T12:00:44.116Z,67.24
2022-08-05T12:03:29.681Z,67.23
2022-08-05T12:06:12.420Z,66.99
2022-08-05T12:08:49.851Z,67.29
2022-08-05T12:11:21.057Z,67.55
2022-08-05T12:13:59.375Z,67.14
2022-08-05T12:16:38.406Z,67.33
2022-08-05T12:19:08.231Z,67.05
2022-08-05T12:21:43.142Z,67.36
2022-08-05T12:24:14.076Z,67.30
2022-08-05T12:26:48.183Z,66.96
2022-08-05T12:29:22.932Z,67.11
2022-08-05T12:31:55.350Z,66.91
2022-08-05T12:34:28.374Z,66.97
2022-08-05T12:36:58.243Z,66.86
2022-08-05T12:39:34.385Z,66.76
2022-08-05T12:42:14.873Z,66.71
2022-08-05T12:44:44.687Z,66.66
2022-08-05T12:47:28.615Z,67.02
2022-08-05T12:50:03.284Z,67.03
2022-08-05T12:52:41.923Z,66.64
2022-08-05T12:55:23.261Z,66.76
2022-08-05T12:58:39.173Z,66.96
2022-08-05T13:02:01.082Z,67.04
2022-08-05T13:03:39.014Z,66.65
2022-08-05T13:06:16.285Z,66.60
2022-08-05T13:08:51.866Z,66.88
2022-08-05T13:11:59.776Z,66.69
2022-08-05T13:14:25.005Z,66.80
2022-08-05T13:17:05.060Z,66.64
2022-08-05T13:19:52.512Z,66.79
2022-08-05T13:22:28.515Z,67.00
2022-08-05T13:25:00.661Z,66.89
2022-08-05T13:27:38.453Z,66.83
2022-08-05T13:30:35.430Z,66.76
2022-08-05T13:33:01.624Z,66.86
2022-08-05T13:35:47.300Z,66.50
2022-08-05T13:38:30.563Z,66.67
2022-08-05T13:41:04.294Z,66.44
2022-08-05T13:43:45.130Z,66.42
2022-08-05T13:46:43.943Z,66.54
2022-08-05T13:49:10.122Z,66.45
2022-08-05T13:51:46.590Z,66.27
2022-08-05T13:54:15.962Z,66.50
2022-08-05T13:56:50.722Z,66.58
2022-08-05T13:59:24.552Z,66.39
2022-08-05T14:01:57.444Z,66.24
2022-08-05T14:04:49.149Z,66.22
2022-08-05T14:07:26.282Z,66.30
2022-08-05T14:10:11.159Z,66.31
2022-08-05T14:12:40.167Z,66.41
2022-08-05T14:16:05.260Z,66.29
2022-08-05T14:18:01.454Z,66.43
2022-08-05T14:20:30.833Z,66.24
2022-08-05T14:23:00.609Z,66.56
2022-08-05T14:25:30.504Z,66.09
2022-08-05T14:27:59.817Z,66.28
2022-08-05T14:30:28.685Z,66.33
2022-08-05T14:32:58.908Z,66.12
2022-08-05T14:35:36.303Z,66.34
2022-08-05T14:38:32.192Z,66.13
2022-08-05T14:41:05.965Z,65.92
2022-08-05T14:43:59.674Z,65.92
2022-08-05T14:46:28.098Z,66.11
2022-08-05T14:48:56.881Z,66.11
2022-08-05T14:51:25.428Z,66.06
2022-08-05T14:54:26.450Z,66.33
2022-08-05T14:56:48.656Z,66.19
2022-08-05T14:59:17.153Z,66.00
2022-08-05T15:01:48.091Z,65.81
2022-08-05T15:04:17.418Z,65.91
2022-08-05T15:06:49.406Z,66.02
2022-08-05T15:09:52.342Z,66.26
2022-08-05T15:12:08.741Z,65.96
2022-08-05T15:14:48.086Z,66.22
2022-08-05T15:17:44.406Z,65.85
2022-08-05T15:20:09.780Z,65.89
2022-08-05T15:22:45.609Z,66.06
2022-08-05T15:25:14.965Z,65.96
2022-08-05T15:27:52.199Z,65.74
2022-08-05T15:30:20.647Z,66.21
2022-08-05T15:32:50.332Z,65.92
2022-08-05T15:35:18.984Z,66.02
2022-08-05T15:38:33.519Z,66.11
2022-08-05T15:40:59.937Z,65.76
2022-08-05T15:43:27.613Z,65.89
2022-08-05T15:46:00.565Z,66.04
2022-08-05T15:48:30.252Z,65.67
2022-08-05T15:51:01.515Z,65.98
2022-08-05T15:53:38.453Z,65.63
2022-08-05T15:56:20.660Z,65.76
2022-08-05T15:58:49.786Z,65.66
2022-08-05T16:01:20.002Z,65.73
2022-08-05T16:03:50.467Z,65.56
2022-08-05T16:06:20.336Z,65.61
2022-08-05T16:08:50.950Z,65.85
2022-08-05T16:11:42.650Z,65.84
2022-08-05T16:14:10.762Z,65.72
2022-08-05T16:16:46.151Z,65.98
2022-08-05T16:19:25.711Z,65.75
2022-08-05T16:22:03.066Z,65.57
2022-08-05T16:24:41.454Z,65.53
2022-08-05T16:27:32.294Z,65.82
2022-08-05T16:30:25.533Z,65.60
2022-08-05T16:32:56.041Z,65.51
2022-08-05T16:35:27.748Z,65.39
2022-08-05T16:38:03.378Z,65.40
2022-08-05T16:40:52.146Z,65.55
2022-08-05T16:43:25.592Z,65.64
2022-08-05T16:46:04.032Z,65.50
2022-08-05T16:48:36.437Z,65.31
2022-08-05T16:51:09.390Z,65.55
2022-08-05T16:54:05.177Z,65.46
2022-08-05T16:56:27.572Z,65.36
2022-08-05T16:58:57.257Z,65.49
2022-08-05T17:01:25.233Z,65.14
2022-08-05T17:03:53.417Z,65.53
2022-08-05T17:06:24.663Z,65.31
2022-08-05T17:08:54.392Z,65.20
2022-08-05T17:11:25.259Z,65.44
2022-08-05T17:14:00.356Z,65.66
2022-08-05T17:16:37.201Z,65.28
2022-08-05T17:19:07.179Z,65.46
2022-08-05T17:21:36.873Z,65.33
2022-08-05T17:24:14.267Z,65.26
2022-08-05T17:26:55.562Z,65.25
2022-08-05T17:29:32.820Z,65.08
2022-08-05T17:32:03.573Z,65.02
2022-08-05T17:34:34.861Z,65.12
2022-08-05T17:37:04.662Z,65.18
2022-08-05T17:39:56.069Z,65.18
2022-08-05T17:42:32.383Z,64.90
2022-08-05T17:45:09.945Z,65.01
2022-08-05T17:47:54.651Z,65.18
2022-08-05T17:50:28.888Z,65.27
2022-08-05T17:53:00.281Z,65.28
2022-08-05T17:55:34.462Z,64.92
2022-08-05T17:58:09.766Z,64.85
2022-08-05T18:00:44.727Z,65.09
2022-08-05T18:03:56.211Z,64.86
2022-08-05T18:06:12.018Z,65.13
2022-08-05T18:08:45.518Z,64.73
2022-08-05T18:11:24.496Z,64.69
2022-08-05T18:14:03.372Z,64.61
2022-08-05T18:16:32.684Z,65.01
2022-08-05T18:19:02.441Z,65.09
2022-08-05T18:22:08.541Z,65.08
2022-08-05T18:24:18.477Z,65.08
2022-08-05T18:26:48.834Z,64.79
2022-08-05T18:29:17.095Z,65.11
2022-08-05T18:31:45.011Z,65.15
2022-08-05T18:34:14.818Z,64.77
2022-08-05T18:36:43.620Z,65.07
2022-08-05T18:39:41.823Z,64.85
2022-08-05T18:42:06.112Z,64.62
2022-08-05T18:44:51.844Z,64.75
2022-08-05T18:47:26.763Z,65.00
2022-08-05T18:50:15.482Z,65.04
2022-08-05T18:52:50.473Z,64.52
2022-08-05T18:55:21.728Z,64.70
2022-08-05T18:57:54.073Z,64.53
2022-08-05T19:00:31.028Z,65.03
2022-08-05T19:03:03.182Z,64.84
2022-08-05T19:06:11.727Z,64.79
2022-08-05T19:08:30.826Z,64.89
2022-08-05T19:11:04.729Z,64.73
2022-08-05T19:13:36.078Z,64.64
2022-08-05T19:16:25.509Z,64.79
2022-08-05T19:18:54.080Z,64.56
2022-08-05T19:21:27.542Z,64.93
2022-08-05T19:24:05.771Z,64.54
2022-08-05T19:26:54.517Z,64.77
2022-08-05T19:29:26.531Z,64.79
2022-08-05T19:32:03.540Z,64.78
2022-08-05T19:34:32.532Z,64.45
2022-08-05T19:37:02.529Z,64.41
2022-08-05T19:39:32.009Z,64.58
2022-08-05T19:42:15.297Z,64.47
2022-08-05T19:44:45.141Z,64.98
2022-08-05T19:47:16.130Z,64.54
2022-08-05T19:49:45.117Z,64.52
2022-08-05T19:52:31.088Z,64.42
2022-08-05T19:55:07.004Z,64.41
2022-08-05T19:58:19.440Z,64.37
2022-08-05T20:00:38.260Z,64.78
2022-08-05T20:03:08.675Z,64.29
2022-08-05T20:05:50.061Z,64.43
2022-08-05T20:08:24.595Z,64.42
2022-08-05T20:10:53.404Z,64.43
2022-08-05T20:13:30.192Z,64.30
2022-08-05T20:16:10.222Z,64.34
2022-08-05T20:18:38.817Z,64.51
2022-08-05T20:21:08.087Z,64.71
2022-08-05T20:23:51.550Z,64.47
2022-08-05T20:26:24.741Z,64.57
2022-08-05T20:28:55.645Z,64.53
2022-08-05T20:31:28.786Z,64.34
2022-08-05T20:34:12.519Z,64.30
2022-08-05T20:36:43.166Z,64.31
2022-08-05T20:39:13.596Z,64.65
2022-08-05T20:41:45.308Z,64.52
2022-08-05T20:44:18.433Z,64.54
2022-08-05T20:46:56.844Z,64.23
2022-08-05T20:49:25.789Z,64.54
2022-08-05T20:51:55.334Z,64.37
2022-08-05T20:54:55.285Z,64.65
2022-08-05T20:57:42.084Z,64.48
2022-08-05T21:00:21.224Z,64.10
2022-08-05T21:02:57.834Z,64.44
2022-08-05T21:05:38.138Z,64.22
2022-08-05T21:08:13.916Z,64.56
2022-08-05T21:10:48.926Z,64.53
2022-08-05T21:13:26.168Z,64.26
2022-08-05T21:16:05.539Z,64.23
2022-08-05T21:18:33.675Z,64.23
2022-08-05T21:21:01.550Z,64.34
2022-08-05T21:23:37.457Z,64.56
2022-08-05T21:26:14.420Z,64.19
2022-08-05T21:28:47.995Z,64.07
2022-08-05T21:31:20.138Z,64.56
2022-08-05T21:33:49.686Z,64.15
2022-08-05T21:36:19.256Z,64.33
2022-08-05T21:38:58.610Z,64.25
2022-08-05T21:41:33.842Z,64.47
2022-08-05T21:44:04.255Z,64.26
2022-08-05T21:46:34.452Z,64.11
2022-08-05T21:49:03.020Z,64.13
2022-08-05T21:52:26.824Z,64.12
2022-08-05T21:54:30.888Z,64.19
2022-08-05T21:57:31.456Z,64.23
2022-08-05T22:00:03.402Z,64.11
2022-08-05T22:02:33.578Z,64.43
2022-08-05T22:05:01.917Z,64.15
2022-08-05T22:07:54.461Z,64.39
2022-08-05T22:10:27.163Z,64.11
2022-08-05T22:12:58.878Z,64.26
2022-08-05T22:16:01.240Z,64.15
2022-08-05T22:18:25.940Z,64.18
2022-08-05T22:20:54.524Z,63.88
2022-08-05T22:24:00.814Z,64.43
2022-08-05T22:26:49.602Z,64.20
2022-08-05T22:29:26.895Z,63.89
2022-08-05T22:31:59.609Z,64.16
2022-08-05T22:34:31.786Z,63.89
2022-08-05T22:37:00.451Z,63.97
2022-08-05T22:39:33.268Z,64.18
2022-08-05T22:42:09.626Z,64.15
2022-08-05T22:44:53.512Z,63.88
2022-08-05T22:47:28.954Z,64.17
2022-08-05T22:50:17.923Z,63.85
2022-08-05T22:52:47.821Z,63.81
2022-08-05T22:55:19.081Z,64.15
2022-08-05T22:57:48.919Z,63.66
2022-08-05T23:00:20.773Z,63.87
2022-08-05T23:02:50.301Z,63.91
2022-08-05T23:05:18.784Z,64.07
2022-08-05T23:07:49.671Z,63.65
2022-08-05T23:10:20.144Z,63.76
2022-08-05T23:12:51.317Z,63.68
2022-08-05T23:15:29.268Z,63.67
2022-08-05T23:18:01.572Z,63.83
2022-08-05T23:20:32.382Z,63.46
2022-08-05T23:23:00.571Z,63.66
2022-08-05T23:25:51.954Z,63.42
2022-08-05T23:28:19.843Z,63.62
2022-08-05T23:30:53.260Z,63.26
2022-08-05T23:33:26.131Z,63.53
2022-08-05T23:36:10.825Z,63.49
2022-08-05T23:38:42.083Z,63.58
2022-08-05T23:41:11.156Z,63.32
2022-08-05T23:44:06.375Z,63.78
2022-08-05T23:46:28.940Z,63.27
2022-08-05T23:49:01.228Z,63.44
2022-08-05T23:51:53.395Z,63.49
2022-08-05T23:54:26.084Z,63.23
2022-08-05T23:56:55.387Z,63.43
2022-08-05T23:59:27.646Z,63.12
